Airfield :
LOGIN :

Register | Disclaimer

   EN    FR    IT 

 










Legend :    VFR   Marginal VFR   IFR   Intensive IFR   Very Intensive IFR
Visi :
Ceiling :
>= 8 km
>= 3000ft
5 to 8 km
1000 to 3000 ft
1500m to 5 km
500 to 1000 ft
800 to 1500m
200 to 500 ft
< 800m
< 200 ft
Symbols :   Thunderstorms  Fog  Heavy snow  Heavy precipitations  Wind > 20 kt
SIGMETs :     Misc.  Thunderstorms  Icing  Turbulence  Mountain Waves  Volcanic Ashes






- Airport Elevation : 101 ft
- IATA code : GLO


EGBJ - Gloucestershire

CURRENT METAR :
  • 191550Z 21014KT 180V240 9999 -RA FEW015 SCT020 BKN046 09/07 Q1015

EXPIRED METARs :
  • 191520Z 21010KT 9999 -RA FEW012 SCT018 BKN046 09/07 Q1015
  • 191450Z 22012KT 9999 -RA FEW012 SCT018 BKN046 09/07 Q1016
  • 191420Z 23012KT 9999 -RA SCT010 BKN018 09/07 Q1017
  • 191350Z 23013KT 9999 -RA SCT010 BKN018 09/07 Q1017
  • 191320Z 22012KT 9999 -RA SCT012 BKN022 09/06 Q1017

TAF TAF EGBJ
Valid from the 19 at 15:00 until the 19 at 20:00 UTC


191403Z 1915/1920 22011KT 9999 SCT018
TEMPO 1915/1916 7000
TEMPO 1916/1920 24015G25KT 7000 -RADZ BKN012



MET'MAP, your aeronautical weather chart ! - Copyright ORBIFLY December 2007 - Disclaimer

ORBIFLY MET'MAP TEAM :

Programming & Development : Alexandra Zaïnal
Concept & original design : Baudouin d'Aumeries
Assistance for programming : Marc-Olivier Méhu
Technical & hardware support : Manuel Goepfert

Contact : metmap@orbifly.com




SOURCES & CREDITS :

   NOAA